Time;durP1;ratioP1;P1;durP2;ratioP2;P2;SDS_P1;SDS_P2;PMS_P1;PMS_P2;Temp;Humidity;BMP_temperature;BMP_pressure;BME280_temperature;BME280_humidity;BME280_pressure;Samples;Min_cycle;Max_cycle;Signal;HPM_P1;HPM_P2
2022/03/30 07:58:49;;;;;;;37.60;24.45;;;;;;;8.73;65.52;100459.63;5268244;28;20430;-67
2022/03/30 08:01:20;;;;;;;29.20;18.95;;;;;;;8.71;64.63;100455.19;5258290;28;20025;-67
2022/03/30 08:03:51;;;;;;;28.75;18.13;;;;;;;8.87;66.08;100455.91;5257758;28;20115;-67
2022/03/30 08:06:23;;;;;;;23.73;17.20;;;;;;;9.07;66.15;100454.09;5255325;28;20075;-67
2022/03/30 08:08:54;;;;;;;24.17;16.77;;;;;;;8.98;64.76;100453.91;5258049;28;20041;-67
2022/03/30 08:11:34;;;;;;;32.45;18.83;;;;;;;9.01;65.63;100458.84;5259383;28;20029;-67
2022/03/30 08:14:06;;;;;;;26.70;18.15;;;;;;;9.21;64.78;100460.63;5256727;28;20021;-67
2022/03/30 08:16:39;;;;;;;34.05;18.30;;;;;;;9.14;63.64;100466.47;5255999;28;20051;-69
2022/03/30 08:19:10;;;;;;;28.00;18.98;;;;;;;9.28;64.95;100466.66;5258014;28;20091;-67
2022/03/30 08:24:31;;;;;;;27.38;17.48;;;;;;;9.31;63.67;100460.53;5257580;28;20040;-69
2022/03/30 08:27:04;;;;;;;29.70;17.58;;;;;;;9.29;62.85;100460.00;5258172;28;20120;-71
2022/03/30 08:29:35;;;;;;;25.15;16.60;;;;;;;9.62;66.66;100464.97;5258737;28;20060;-67
2022/03/30 08:32:06;;;;;;;25.67;16.48;;;;;;;9.82;65.24;100467.50;5256438;28;20053;-67
2022/03/30 08:34:39;;;;;;;26.83;17.38;;;;;;;9.62;61.94;100471.31;5258066;28;20538;-67
2022/03/30 08:37:11;;;;;;;25.80;17.42;;;;;;;9.58;61.61;100462.75;5257806;28;20031;-66
2022/03/30 08:39:43;;;;;;;23.70;16.38;;;;;;;9.66;62.45;100454.94;5258614;28;20112;-69
2022/03/30 08:42:16;;;;;;;24.48;16.30;;;;;;;9.64;62.09;100452.47;5258240;28;20104;-69
2022/03/30 08:44:51;;;;;;;23.20;15.15;;;;;;;9.92;63.55;100452.69;5256794;28;20021;-68
2022/03/30 08:47:22;;;;;;;27.80;18.23;;;;;;;9.94;61.87;100456.81;5257440;28;20025;-67
2022/03/30 08:49:53;;;;;;;27.30;15.52;;;;;;;9.99;61.90;100454.00;5258121;28;20116;-68
2022/03/30 08:52:25;;;;;;;24.05;15.50;;;;;;;9.74;61.49;100452.38;5256833;28;20025;-68
2022/03/30 08:54:59;;;;;;;24.35;15.90;;;;;;;10.00;62.09;100452.88;5257324;28;20033;-68
2022/03/30 08:57:30;;;;;;;27.88;17.45;;;;;;;9.86;60.81;100451.94;5257496;28;20475;-68
2022/03/30 09:00:09;;;;;;;19.52;13.25;;;;;;;10.35;64.93;100439.72;5257322;28;20041;-68
2022/03/30 09:02:43;;;;;;;20.25;13.85;;;;;;;10.32;62.61;100456.13;5257366;28;20373;-70
2022/03/30 09:05:20;;;;;;;26.65;15.50;;;;;;;10.26;60.06;100452.56;5255982;28;20029;-68
2022/03/30 09:08:06;;;;;;;19.98;14.18;;;;;;;10.34;62.41;100449.16;5256531;28;20021;-68
2022/03/30 09:10:40;;;;;;;21.83;14.02;;;;;;;10.47;61.98;100452.31;5242937;28;20041;-68
2022/03/30 09:13:14;;;;;;;20.67;14.48;;;;;;;10.46;62.10;100448.72;5243148;28;20369;-68
2022/03/30 09:15:51;;;;;;;20.08;12.73;;;;;;;10.55;62.78;100446.94;5243190;28;20033;-68
2022/03/30 09:18:25;;;;;;;21.98;13.90;;;;;;;10.53;60.64;100440.03;5243597;28;20167;-68
2022/03/30 09:20:58;;;;;;;23.73;14.18;;;;;;;10.55;61.65;100433.06;5243193;28;20036;-68
2022/03/30 09:23:33;;;;;;;19.85;12.77;;;;;;;10.68;60.53;100442.56;5243662;28;20026;-68
2022/03/30 09:26:05;;;;;;;24.30;15.30;;;;;;;10.60;60.25;100434.94;5243065;28;20056;-68
2022/03/30 09:28:36;;;;;;;19.20;13.48;;;;;;;10.84;62.33;100430.13;5243722;28;20061;-68
2022/03/30 09:31:07;;;;;;;25.83;15.07;;;;;;;10.53;59.15;100434.47;5243817;28;20025;-68
2022/03/30 09:33:41;;;;;;;22.42;13.15;;;;;;;10.67;60.32;100427.06;5242896;28;20481;-68
2022/03/30 09:36:30;;;;;;;17.92;12.60;;;;;;;10.91;61.00;100424.19;5243389;28;20018;-67
2022/03/30 09:39:04;;;;;;;19.27;13.82;;;;;;;10.93;59.64;100421.13;5243244;28;20025;-68
2022/03/30 09:41:48;;;;;;;22.33;14.93;;;;;;;10.89;59.19;100415.38;5242629;28;20376;-69
2022/03/30 09:44:22;;;;;;;20.83;14.80;;;;;;;10.77;58.31;100410.28;5240499;28;20465;-68
2022/03/30 09:47:05;;;;;;;58.35;45.40;;;;;;;10.82;59.72;100410.19;5243475;28;20084;-69
2022/03/30 09:49:45;;;;;;;33.95;23.02;;;;;;;10.86;58.98;100405.69;5242209;28;20026;-68
2022/03/30 09:52:19;;;;;;;20.98;14.38;;;;;;;10.95;58.14;100396.69;5242636;28;20033;-69
2022/03/30 09:54:57;;;;;;;22.77;15.25;;;;;;;10.79;58.13;100399.72;5242340;28;20025;-68
2022/03/30 09:57:34;;;;;;;22.27;15.95;;;;;;;11.05;58.97;100405.66;5242916;28;20103;-69
2022/03/30 10:00:12;;;;;;;20.92;15.55;;;;;;;11.13;59.20;100411.66;5243228;28;20427;-68
2022/03/30 10:02:51;;;;;;;22.23;16.35;;;;;;;11.09;58.56;100408.63;5242629;28;20547;-70
2022/03/30 10:05:23;;;;;;;25.00;16.17;;;;;;;11.12;57.36;100404.44;5242393;28;20033;-69
2022/03/30 10:07:56;;;;;;;20.45;15.55;;;;;;;11.03;56.69;100407.09;5241813;28;20044;-69
2022/03/30 10:10:27;;;;;;;20.92;14.82;;;;;;;11.10;57.67;100401.97;5242042;28;20022;-70
2022/03/30 10:13:01;;;;;;;22.98;15.68;;;;;;;11.22;57.98;100395.91;5242653;28;20033;-70
2022/03/30 10:15:33;;;;;;;25.17;15.60;;;;;;;11.24;58.41;100390.91;5241733;28;20029;-70
2022/03/30 10:18:05;;;;;;;24.90;17.73;;;;;;;11.18;56.84;100381.03;5242770;28;20032;-69
2022/03/30 10:20:37;;;;;;;19.17;15.05;;;;;;;11.37;56.14;100384.53;5241535;28;20029;-71
2022/03/30 10:23:23;;;;;;;21.00;16.08;;;;;;;11.48;56.08;100385.19;5241699;28;20124;-70
2022/03/30 10:26:32;;;;;;;21.95;16.45;;;;;;;11.55;56.00;100382.81;5242324;28;20037;-70
2022/03/30 10:29:09;;;;;;;21.60;15.65;;;;;;;11.61;54.73;100381.59;5241997;28;20025;-70
2022/03/30 10:32:15;;;;;;;20.13;15.45;;;;;;;11.65;55.47;100382.59;5241792;28;20033;-74
2022/03/30 10:34:56;;;;;;;19.10;14.80;;;;;;;11.73;56.41;100373.59;5242409;28;20033;-74
2022/03/30 10:37:27;;;;;;;22.40;14.48;;;;;;;11.90;56.02;100375.75;5241273;28;20064;-71
2022/03/30 10:40:03;;;;;;;15.30;12.77;;;;;;;12.09;56.46;100364.53;5241956;28;20029;-71
2022/03/30 10:42:58;;;;;;;56.40;44.95;;;;;;;12.12;56.98;100363.88;5242434;28;20087;-74
2022/03/30 10:45:49;;;;;;;28.57;16.37;;;;;;;12.06;56.37;100359.56;5241845;28;20118;-73
2022/03/30 10:48:29;;;;;;;19.08;13.63;;;;;;;12.15;54.04;100360.47;5242693;28;20052;-71
2022/03/30 10:51:15;;;;;;;21.63;15.98;;;;;;;12.14;53.55;100358.00;5241097;28;20033;-71
2022/03/30 10:53:52;;;;;;;21.60;15.80;;;;;;;12.12;52.75;100347.22;5242262;28;20519;-73
2022/03/30 10:56:24;;;;;;;21.67;15.63;;;;;;;12.10;53.80;100346.69;5240563;28;20032;-73
2022/03/30 10:58:56;;;;;;;19.27;15.55;;;;;;;11.75;53.21;100343.50;5241762;28;20037;-72
2022/03/30 11:01:34;;;;;;;19.92;14.73;;;;;;;11.72;53.73;100344.13;5242898;28;20092;-74
2022/03/30 11:04:18;;;;;;;20.50;15.48;;;;;;;11.92;55.00;100342.09;5242056;28;20052;-72
2022/03/30 11:06:55;;;;;;;20.38;14.95;;;;;;;11.98;53.58;100343.63;5241138;28;20083;-73
2022/03/30 11:09:28;;;;;;;23.25;16.85;;;;;;;11.98;52.68;100334.47;5244014;28;20025;-72
2022/03/30 11:12:09;;;;;;;18.92;14.18;;;;;;;12.08;54.27;100328.69;5241444;28;20112;-72
2022/03/30 11:14:43;;;;;;;19.75;14.52;;;;;;;11.96;53.38;100329.22;5241694;28;20029;-73
2022/03/30 11:17:30;;;;;;;22.05;14.48;;;;;;;12.10;53.73;100318.09;5241135;28;20108;-73
2022/03/30 11:20:08;;;;;;;22.77;15.00;;;;;;;12.11;52.09;100317.75;5240903;28;20104;-73
2022/03/30 11:22:44;;;;;;;21.35;15.18;;;;;;;12.17;53.91;100313.75;5241249;28;20108;-73
2022/03/30 11:25:21;;;;;;;22.20;16.55;;;;;;;12.33;51.37;100308.63;5241410;28;20446;-72
2022/03/30 11:27:58;;;;;;;20.27;14.63;;;;;;;12.26;51.97;100308.25;5240095;28;20038;-72
2022/03/30 11:30:38;;;;;;;20.83;16.58;;;;;;;12.23;51.04;100303.31;5240417;28;20026;-73
2022/03/30 11:33:14;;;;;;;23.17;14.93;;;;;;;12.41;52.32;100301.50;5240112;28;20026;-73
2022/03/30 11:35:48;;;;;;;23.92;15.30;;;;;;;12.38;53.64;100293.78;5242159;28;20044;-72
2022/03/30 11:38:25;;;;;;;23.08;15.30;;;;;;;12.54;51.20;100291.44;5241430;28;20106;-71
2022/03/30 11:41:02;;;;;;;22.23;15.23;;;;;;;12.62;51.61;100291.50;5240478;28;20083;-72
2022/03/30 11:46:32;;;;;;;26.92;15.95;;;;;;;12.75;52.11;100288.97;5241300;28;20073;-72
2022/03/30 11:49:05;;;;;;;20.15;14.70;;;;;;;12.88;50.76;100282.50;5240010;28;20029;-72
2022/03/30 11:51:37;;;;;;;22.23;16.58;;;;;;;13.02;48.81;100274.88;5241109;28;20025;-72
2022/03/30 11:54:14;;;;;;;17.50;13.75;;;;;;;12.89;50.71;100278.59;5240414;28;20025;-71
2022/03/30 11:56:51;;;;;;;19.52;14.43;;;;;;;13.07;50.65;100270.34;5240810;28;20052;-71
2022/03/30 11:59:22;;;;;;;19.73;15.15;;;;;;;12.80;50.03;100270.16;5240833;28;20417;-71
2022/03/30 12:01:54;;;;;;;20.27;13.85;;;;;;;13.02;49.92;100272.09;5240375;28;20026;-72
2022/03/30 12:04:32;;;;;;;16.42;13.60;;;;;;;13.19;50.39;100278.88;5240142;28;20362;-73
2022/03/30 12:07:03;;;;;;;17.83;14.13;;;;;;;13.07;48.45;100270.34;5241163;28;20461;-70
2022/03/30 12:09:44;;;;;;;20.17;12.65;;;;;;;13.40;50.26;100271.63;5239911;28;20046;-69
2022/03/30 12:12:26;;;;;;;15.43;12.68;;;;;;;13.46;48.10;100277.88;5241306;28;20457;-71
2022/03/30 12:14:59;;;;;;;18.50;13.63;;;;;;;13.34;48.36;100270.13;5240750;28;20465;-72
2022/03/30 12:17:31;;;;;;;15.93;12.73;;;;;;;13.47;48.34;100265.59;5240554;28;20045;-72
2022/03/30 12:20:06;;;;;;;18.45;13.65;;;;;;;13.42;47.88;100269.34;5240287;28;20065;-71
2022/03/30 12:22:38;;;;;;;20.23;12.43;;;;;;;13.47;48.84;100268.38;5232301;28;20357;-71
2022/03/30 12:25:18;;;;;;;17.52;13.23;;;;;;;13.54;47.99;100265.13;5240215;28;20028;-70
2022/03/30 12:27:50;;;;;;;18.02;12.70;;;;;;;13.57;45.96;100261.69;5239900;28;20041;-71
2022/03/30 12:30:22;;;;;;;14.48;10.93;;;;;;;13.83;50.19;100256.16;5239684;28;20389;-70
2022/03/30 12:32:54;;;;;;;17.00;12.95;;;;;;;13.76;46.56;100253.06;5241316;28;20037;-71
2022/03/30 12:35:35;;;;;;;17.95;13.30;;;;;;;13.74;47.40;100250.56;5233872;28;20045;-71
2022/03/30 12:38:11;;;;;;;17.60;12.77;;;;;;;13.46;47.23;100245.25;5239645;28;20457;-69
2022/03/30 12:40:44;;;;;;;18.15;12.48;;;;;;;13.61;47.79;100230.06;5228462;28;20112;-70
2022/03/30 12:43:23;;;;;;;15.15;11.18;;;;;;;13.54;47.08;100237.25;5239582;28;20036;-69
2022/03/30 12:45:56;;;;;;;15.30;12.35;;;;;;;13.50;46.49;100242.69;5243790;28;20044;-70
2022/03/30 12:48:34;;;;;;;17.15;11.77;;;;;;;13.44;48.05;100236.41;5243036;28;20043;-72
2022/03/30 12:51:17;;;;;;;19.20;12.20;;;;;;;13.57;47.05;100233.81;5242583;28;20033;-69
2022/03/30 12:53:49;;;;;;;19.27;13.18;;;;;;;13.62;47.08;100231.69;5260231;28;20396;-70
2022/03/30 12:56:20;;;;;;;22.63;20.17;;;;;;;13.91;46.75;100231.09;5247779;28;20041;-72
2022/03/30 12:58:58;;;;;;;16.27;13.38;;;;;;;14.07;45.24;100225.03;5242061;28;20036;-70
2022/03/30 13:01:35;;;;;;;15.48;11.75;;;;;;;13.85;45.06;100221.22;5223546;28;20152;-70
2022/03/30 13:04:26;;;;;;;17.48;13.05;;;;;;;13.98;46.81;100222.22;5222141;28;20054;-71
2022/03/30 13:07:12;;;;;;;18.90;12.00;;;;;;;14.29;45.10;100218.44;5228617;28;20113;-78
2022/03/30 13:09:59;;;;;;;17.60;11.10;;;;;;;14.20;45.23;100218.44;5244344;28;20104;-71
2022/03/30 13:12:31;;;;;;;14.55;11.63;;;;;;;14.28;44.37;100209.25;5241092;28;20413;-71
2022/03/30 13:15:04;;;;;;;18.20;13.65;;;;;;;14.45;44.35;100207.59;5242672;28;20025;-70
2022/03/30 13:18:03;;;;;;;19.20;13.52;;;;;;;14.18;45.30;100204.00;5242981;28;20022;-70
2022/03/30 13:20:37;;;;;;;58.38;49.92;;;;;;;13.87;44.09;100195.84;5222176;28;20069;-70
2022/03/30 13:23:10;;;;;;;26.67;21.90;;;;;;;13.88;46.87;100195.50;5234231;28;20108;-69
2022/03/30 13:25:43;;;;;;;14.93;12.15;;;;;;;14.13;44.16;100190.25;5242412;28;20385;-70
2022/03/30 13:28:23;;;;;;;16.75;12.52;;;;;;;14.09;43.48;100187.31;5241847;28;20113;-69
2022/03/30 13:30:56;;;;;;;16.90;12.52;;;;;;;14.07;43.51;100180.41;5241994;28;20405;-70
2022/03/30 13:33:29;;;;;;;15.07;12.90;;;;;;;14.01;44.36;100176.13;5221534;28;20029;-70
2022/03/30 13:36:00;;;;;;;14.18;11.50;;;;;;;14.02;44.64;100173.03;5225627;28;20033;-70
2022/03/30 13:38:31;;;;;;;16.67;11.73;;;;;;;13.85;44.12;100173.84;5243207;28;20025;-71
2022/03/30 13:41:03;;;;;;;20.80;13.00;;;;;;;13.99;45.82;100167.31;5242340;28;20123;-70
2022/03/30 13:43:34;;;;;;;18.30;12.10;;;;;;;13.72;44.61;100169.25;5242543;28;20036;-70
2022/03/30 13:46:05;;;;;;;14.40;11.75;;;;;;;13.51;42.77;100163.53;5242130;28;20522;-71
2022/03/30 13:48:37;;;;;;;82.28;70.70;;;;;;;13.78;44.19;100165.19;5241209;28;20034;-69
2022/03/30 13:51:08;;;;;;;17.83;12.85;;;;;;;13.79;43.37;100158.44;5241729;28;20033;-71
2022/03/30 13:53:39;;;;;;;15.00;11.88;;;;;;;13.85;43.98;100151.56;5242381;28;20492;-71
2022/03/30 13:56:13;;;;;;;13.60;10.45;;;;;;;14.23;46.44;100150.84;5241644;28;20087;-70
2022/03/30 13:58:45;;;;;;;38.40;31.67;;;;;;;14.27;42.54;100142.66;5241783;28;20057;-71
2022/03/30 14:01:18;;;;;;;14.20;10.90;;;;;;;14.36;42.76;100149.03;5242101;28;20017;-70
2022/03/30 14:03:49;;;;;;;13.25;10.27;;;;;;;14.42;44.50;100144.06;5241276;28;20041;-70
2022/03/30 14:06:21;;;;;;;22.27;19.25;;;;;;;14.44;41.74;100141.78;5242339;28;20070;-70
2022/03/30 14:08:53;;;;;;;13.07;9.52;;;;;;;14.63;42.92;100138.66;5242093;28;20753;-69
2022/03/30 14:11:24;;;;;;;13.85;9.65;;;;;;;14.58;40.52;100136.84;5241935;28;20121;-70
2022/03/30 14:13:56;;;;;;;12.65;11.38;;;;;;;14.45;42.26;100135.88;5242395;28;20032;-73
2022/03/30 14:16:27;;;;;;;13.70;10.18;;;;;;;14.51;41.31;100133.72;5241302;28;20033;-71
2022/03/30 14:18:58;;;;;;;15.25;9.65;;;;;;;14.63;46.77;100133.88;5241085;28;20052;-70
2022/03/30 14:21:33;;;;;;;12.65;10.63;;;;;;;14.60;45.62;100130.94;5241110;28;20029;-69
2022/03/30 14:24:04;;;;;;;12.32;9.75;;;;;;;14.40;43.20;100127.69;5242252;28;20124;-70
2022/03/30 14:26:38;;;;;;;11.27;9.40;;;;;;;14.36;44.05;100121.94;5241931;28;20120;-69
2022/03/30 14:29:10;;;;;;;12.63;9.60;;;;;;;14.38;45.02;100112.44;5241337;28;20101;-67
2022/03/30 14:31:41;;;;;;;13.10;9.63;;;;;;;14.21;44.74;100119.69;5241810;28;20104;-68
2022/03/30 14:34:12;;;;;;;12.52;9.35;;;;;;;14.23;45.11;100125.75;5242382;28;20033;-68
2022/03/30 14:36:44;;;;;;;11.48;8.65;;;;;;;14.15;43.64;100118.25;5240941;28;20308;-67
2022/03/30 14:39:15;;;;;;;18.13;11.10;;;;;;;14.08;41.74;100123.50;5241952;28;20021;-67
2022/03/30 14:41:49;;;;;;;15.10;13.35;;;;;;;13.91;42.09;100116.00;5241325;28;20034;-67
2022/03/30 14:44:22;;;;;;;13.02;8.98;;;;;;;13.95;42.99;100110.56;5241687;28;20032;-68
2022/03/30 14:46:56;;;;;;;10.93;9.02;;;;;;;13.95;43.01;100111.38;5241950;28;20029;-67
2022/03/30 14:49:27;;;;;;;11.10;8.43;;;;;;;13.88;43.64;100116.63;5241936;28;20018;-68
2022/03/30 14:51:59;;;;;;;9.75;8.32;;;;;;;13.76;42.37;100105.34;5240708;28;20389;-68
2022/03/30 14:54:39;;;;;;;12.10;8.55;;;;;;;13.88;44.06;100105.47;5241624;28;20114;-71
2022/03/30 14:57:12;;;;;;;10.77;8.75;;;;;;;13.95;42.00;100102.19;5239346;28;20056;-70
2022/03/30 14:59:44;;;;;;;12.80;8.38;;;;;;;14.01;42.22;100104.50;5241538;28;20044;-70
2022/03/30 15:02:15;;;;;;;12.38;8.90;;;;;;;14.12;42.00;100105.78;5241737;28;20377;-69
2022/03/30 15:04:47;;;;;;;17.55;9.60;;;;;;;14.20;41.12;100101.34;5241104;28;20037;-69
2022/03/30 15:07:18;;;;;;;38.40;15.48;;;;;;;14.42;45.02;100096.66;5240870;28;20025;-68
2022/03/30 15:09:50;;;;;;;12.63;8.60;;;;;;;14.36;41.67;100085.69;5240666;28;20160;-68
2022/03/30 15:12:21;;;;;;;16.45;14.25;;;;;;;14.29;41.81;100090.13;5235804;28;20030;-71
2022/03/30 15:14:54;;;;;;;21.90;11.23;;;;;;;14.34;44.62;100084.38;5241238;28;20034;-70
2022/03/30 15:17:25;;;;;;;14.82;10.30;;;;;;;14.21;40.39;100079.84;5241192;28;20045;-70
2022/03/30 15:19:56;;;;;;;20.13;11.27;;;;;;;14.24;42.60;100082.78;5239235;28;20029;-70
2022/03/30 15:22:28;;;;;;;12.90;9.13;;;;;;;14.10;40.38;100076.59;5235012;28;20017;-70
2022/03/30 15:25:00;;;;;;;12.23;9.50;;;;;;;14.17;41.80;100079.69;5227789;28;20030;-72
2022/03/30 15:27:31;;;;;;;9.40;8.48;;;;;;;14.12;38.09;100077.91;5248686;28;20037;-70
2022/03/30 15:30:07;;;;;;;15.73;9.52;;;;;;;14.11;38.92;100076.28;5253335;28;20021;-70
2022/03/30 15:32:39;;;;;;;10.60;7.88;;;;;;;14.32;38.76;100070.78;5240608;28;20018;-70
2022/03/30 15:35:12;;;;;;;11.82;8.60;;;;;;;14.36;39.67;100071.75;5241238;28;20021;-69
2022/03/30 15:37:43;;;;;;;11.93;10.07;;;;;;;14.47;39.77;100072.22;5241113;28;20128;-69
2022/03/30 15:40:15;;;;;;;16.55;9.60;;;;;;;14.48;41.59;100070.22;5240359;28;20021;-69
2022/03/30 15:42:47;;;;;;;14.75;9.95;;;;;;;14.36;40.11;100062.56;5241304;28;20079;-71
2022/03/30 15:45:19;;;;;;;12.10;8.88;;;;;;;14.46;43.60;100069.75;5240065;28;20057;-70
2022/03/30 15:47:50;;;;;;;15.50;9.32;;;;;;;14.08;42.25;100071.34;5238441;28;20561;-67
2022/03/30 15:50:23;;;;;;;19.45;16.15;;;;;;;14.39;43.16;100063.84;5231684;28;20018;-71
2022/03/30 15:52:57;;;;;;;13.52;9.55;;;;;;;14.31;42.21;100069.13;5238726;28;20104;-71
2022/03/30 15:55:29;;;;;;;14.90;9.35;;;;;;;14.01;42.03;100068.25;5220429;28;20029;-71
2022/03/30 15:58:01;;;;;;;14.30;9.50;;;;;;;13.96;43.74;100059.22;5220215;28;20046;-70
2022/03/30 16:00:34;;;;;;;12.88;9.85;;;;;;;13.70;42.73;100060.09;5224268;28;20033;-72
2022/03/30 16:03:05;;;;;;;13.48;10.63;;;;;;;13.70;45.06;100066.50;5229220;28;20492;-72
2022/03/30 16:05:37;;;;;;;11.13;9.38;;;;;;;13.63;43.46;100062.59;5238655;28;20026;-70
2022/03/30 16:14:03;;;;;;;12.90;8.75;;;;;;;13.53;43.97;100062.91;5222368;28;20041;-77
2022/03/30 16:16:46;;;;;;;18.70;9.00;;;;;;;13.53;43.77;100052.59;5240786;28;20030;-76
2022/03/30 16:19:50;;;;;;;10.68;8.60;;;;;;;13.49;43.78;100063.56;5235059;28;20022;-77
2022/03/30 16:22:25;;;;;;;13.82;9.18;;;;;;;13.31;44.36;100064.72;5243377;28;20366;-76
2022/03/30 16:24:56;;;;;;;12.55;9.63;;;;;;;13.25;44.63;100066.00;5243539;28;20026;-75
2022/03/30 16:27:27;;;;;;;12.20;8.40;;;;;;;13.23;44.97;100057.16;5243797;28;20121;-75
2022/03/30 16:30:01;;;;;;;10.65;9.00;;;;;;;13.32;44.29;100059.94;5243631;28;20041;-76
2022/03/30 16:32:34;;;;;;;13.93;8.27;;;;;;;13.08;44.20;100061.22;5245895;28;20049;-78
2022/03/30 16:35:12;;;;;;;13.98;8.50;;;;;;;12.99;44.14;100057.63;5239197;28;20025;-75
2022/03/30 16:37:44;;;;;;;13.15;9.50;;;;;;;12.82;44.59;100052.81;5244610;28;20095;-76
2022/03/30 16:43:15;;;;;;;12.45;8.98;;;;;;;12.79;45.50;100062.63;5246610;28;20384;-75
2022/03/30 16:45:59;;;;;;;10.52;8.65;;;;;;;12.70;45.92;100060.97;5245362;28;20022;-76
2022/03/30 16:48:31;;;;;;;14.07;9.57;;;;;;;12.62;45.92;100065.38;5245111;28;20060;-75
2022/03/30 16:51:02;;;;;;;11.32;9.05;;;;;;;12.65;45.56;100066.69;5244042;28;20022;-76
2022/03/30 16:53:34;;;;;;;11.20;9.38;;;;;;;12.54;45.66;100063.38;5244187;28;20496;-76
2022/03/30 16:56:05;;;;;;;13.02;8.25;;;;;;;12.78;45.60;100062.94;5244788;28;20033;-76
2022/03/30 16:58:37;;;;;;;11.55;8.38;;;;;;;12.76;45.35;100060.50;5243359;28;20053;-76
2022/03/30 17:01:12;;;;;;;9.75;7.95;;;;;;;12.63;45.79;100061.47;5243786;28;20034;-76
2022/03/30 17:03:44;;;;;;;;;;;;;;;12.88;45.75;100057.09;5243365;28;20388;-76
2022/03/30 17:06:17;;;;;;;10.93;8.02;;;;;;;12.73;46.24;100054.75;5244413;28;19916;-76
2022/03/30 17:11:39;;;;;;;8.77;7.47;;;;;;;12.69;46.10;100059.34;5242312;28;20049;-76
2022/03/30 17:14:10;;;;;;;9.80;7.57;;;;;;;12.70;46.30;100063.75;5242907;28;20014;-77
2022/03/30 17:16:41;;;;;;;12.13;8.50;;;;;;;12.70;46.58;100061.78;5242187;28;20157;-76
2022/03/30 17:19:13;;;;;;;11.18;8.23;;;;;;;12.57;47.31;100063.53;5237724;28;20142;-76
2022/03/30 17:21:45;;;;;;;10.73;7.63;;;;;;;12.30;46.84;100063.78;5244329;28;20064;-76
2022/03/30 17:24:17;;;;;;;10.65;7.03;;;;;;;12.22;47.20;100058.97;5241889;28;20030;-72
2022/03/30 17:26:49;;;;;;;9.25;7.43;;;;;;;12.27;47.19;100058.84;5230545;28;20032;-76
2022/03/30 17:29:20;;;;;;;9.88;7.32;;;;;;;12.08;47.40;100062.69;5243689;28;20014;-76
